createdAt,value
2019-01-18T00:02:29.741Z,9.10
2019-01-18T00:04:59.905Z,11.00
2019-01-18T00:07:29.934Z,11.63
2019-01-18T00:10:00.037Z,14.20
2019-01-18T00:12:30.232Z,16.00
2019-01-18T00:15:00.398Z,15.73
2019-01-18T00:17:30.364Z,19.67
2019-01-18T00:20:00.333Z,16.57
2019-01-18T00:22:30.442Z,16.93
2019-01-18T00:25:00.694Z,19.33
2019-01-18T00:27:30.644Z,15.57
2019-01-18T00:30:00.673Z,13.53
2019-01-18T00:32:42.156Z,15.63
2019-01-18T00:35:12.750Z,10.40
2019-01-18T00:37:42.946Z,10.47
2019-01-18T00:40:13.724Z,11.50
2019-01-18T00:42:43.838Z,11.87
2019-01-18T00:45:15.345Z,8.43
2019-01-18T00:47:45.596Z,6.70
2019-01-18T00:50:17.086Z,6.10
2019-01-18T00:52:47.093Z,5.43
2019-01-18T00:55:17.150Z,4.53
2019-01-18T00:57:47.203Z,3.70
2019-01-18T01:00:22.550Z,3.77
2019-01-18T01:02:53.152Z,3.30
2019-01-18T01:05:23.810Z,2.47
2019-01-18T01:07:53.941Z,2.70
2019-01-18T01:10:24.178Z,2.23
2019-01-18T01:12:54.156Z,2.70
2019-01-18T01:15:24.200Z,3.40
2019-01-18T01:17:54.145Z,3.30
2019-01-18T01:20:24.385Z,4.43
2019-01-18T01:22:54.449Z,3.60
2019-01-18T01:25:24.594Z,4.50
2019-01-18T01:27:54.536Z,3.93
2019-01-18T01:30:28.018Z,4.07
2019-01-18T01:32:58.009Z,4.87
2019-01-18T01:35:27.931Z,4.37
2019-01-18T01:37:58.007Z,4.23
2019-01-18T01:40:29.286Z,4.17
2019-01-18T01:42:59.221Z,5.77
2019-01-18T01:45:29.277Z,5.07
2019-01-18T01:47:59.236Z,5.20
2019-01-18T01:50:29.264Z,6.77
2019-01-18T01:52:59.844Z,5.60
2019-01-18T01:55:29.885Z,6.90
2019-01-18T01:57:59.912Z,5.70
2019-01-18T02:00:30.453Z,5.23
2019-01-18T02:03:02.137Z,5.13
2019-01-18T02:05:32.308Z,5.20
2019-01-18T02:08:02.506Z,5.47
2019-01-18T02:10:32.553Z,5.50
2019-01-18T02:13:02.602Z,5.40
2019-01-18T02:15:32.604Z,4.77
2019-01-18T02:18:02.722Z,5.90
2019-01-18T02:20:32.672Z,5.60
2019-01-18T02:23:03.020Z,5.30
2019-01-18T02:25:33.161Z,6.00
2019-01-18T02:28:03.377Z,4.33
2019-01-18T02:30:33.381Z,4.47
2019-01-18T02:33:03.621Z,6.13
2019-01-18T02:35:33.724Z,5.30
2019-01-18T02:38:03.741Z,4.10
2019-01-18T02:40:33.709Z,4.30
2019-01-18T02:43:04.154Z,5.00
2019-01-18T02:45:34.364Z,4.90
2019-01-18T02:48:04.445Z,4.37
2019-01-18T02:50:34.381Z,3.73
2019-01-18T02:53:04.349Z,3.87
2019-01-18T02:55:34.639Z,4.43
2019-01-18T02:58:04.800Z,3.70
2019-01-18T03:00:34.757Z,3.00
2019-01-18T03:03:04.960Z,3.70
2019-01-18T03:05:35.541Z,3.77
2019-01-18T03:08:05.705Z,3.07
2019-01-18T03:10:35.606Z,3.10
2019-01-18T03:13:05.927Z,3.50
2019-01-18T03:15:36.055Z,3.03
2019-01-18T03:18:06.205Z,2.93
2019-01-18T03:20:36.296Z,2.90
2019-01-18T03:23:06.401Z,3.20
2019-01-18T03:25:36.582Z,4.30
2019-01-18T03:28:07.226Z,4.63
2019-01-18T03:30:37.154Z,3.97
2019-01-18T03:33:07.564Z,3.97
2019-01-18T03:35:37.613Z,4.50
2019-01-18T03:38:07.733Z,4.43
2019-01-18T03:40:38.280Z,3.90
2019-01-18T03:43:09.838Z,4.57
2019-01-18T03:45:39.989Z,4.00
2019-01-18T03:48:10.134Z,4.93
2019-01-18T03:50:40.035Z,3.97
2019-01-18T03:53:10.041Z,4.20
2019-01-18T03:55:40.286Z,4.30
2019-01-18T03:58:10.225Z,4.10
2019-01-18T04:00:40.178Z,4.20
2019-01-18T04:03:10.622Z,4.37
2019-01-18T04:05:41.279Z,3.70
2019-01-18T04:08:11.382Z,3.83
2019-01-18T04:10:41.754Z,3.90
2019-01-18T04:13:11.850Z,3.73
2019-01-18T04:15:41.994Z,3.97
2019-01-18T04:18:12.042Z,4.17
2019-01-18T04:20:41.934Z,4.10
2019-01-18T04:23:12.085Z,4.50
2019-01-18T04:25:42.378Z,3.90
2019-01-18T04:28:12.347Z,3.47
2019-01-18T04:30:42.458Z,3.97
2019-01-18T04:33:12.606Z,4.60
2019-01-18T04:35:42.584Z,4.07
2019-01-18T04:38:12.478Z,3.47
2019-01-18T04:40:42.433Z,3.80
2019-01-18T04:43:12.332Z,3.50
2019-01-18T04:45:42.257Z,3.77
2019-01-18T04:48:12.329Z,3.93
2019-01-18T04:50:42.240Z,4.07
2019-01-18T04:53:12.114Z,3.40
2019-01-18T04:55:41.995Z,3.67
2019-01-18T04:58:11.889Z,4.40
2019-01-18T05:00:41.882Z,4.00
2019-01-18T05:03:11.821Z,4.47
2019-01-18T05:05:41.869Z,3.70
2019-01-18T05:08:11.885Z,3.00
2019-01-18T05:10:41.895Z,4.70
2019-01-18T05:13:11.781Z,4.60
2019-01-18T05:15:41.685Z,4.00
2019-01-18T05:18:11.670Z,4.17
2019-01-18T05:20:41.624Z,4.57
2019-01-18T05:23:12.115Z,4.63
2019-01-18T05:25:42.057Z,5.03
2019-01-18T05:28:12.059Z,4.60
2019-01-18T05:30:47.489Z,4.53
2019-01-18T05:33:14.213Z,4.97
2019-01-18T05:35:44.261Z,4.87
2019-01-18T05:38:14.165Z,4.33
2019-01-18T05:40:44.465Z,5.40
2019-01-18T05:43:14.822Z,6.87
2019-01-18T05:45:44.819Z,6.87
2019-01-18T05:48:14.706Z,5.80
2019-01-18T05:50:44.666Z,6.47
2019-01-18T05:53:14.909Z,6.60
2019-01-18T05:55:44.846Z,6.20
2019-01-18T05:58:14.799Z,7.00
2019-01-18T06:00:55.408Z,7.80
2019-01-18T06:03:24.218Z,7.30
2019-01-18T06:05:54.162Z,8.43
2019-01-18T06:08:24.138Z,8.20
2019-01-18T06:10:54.176Z,8.30
2019-01-18T06:13:24.198Z,8.10
2019-01-18T06:15:54.223Z,8.50
2019-01-18T06:18:24.104Z,7.83
2019-01-18T06:20:54.092Z,8.40
2019-01-18T06:23:24.168Z,8.03
2019-01-18T06:25:54.710Z,8.60
2019-01-18T06:28:24.652Z,7.90
2019-01-18T06:30:54.674Z,8.77
2019-01-18T06:33:24.690Z,8.10
2019-01-18T06:35:54.622Z,9.47
2019-01-18T06:38:24.650Z,10.23
2019-01-18T06:40:57.489Z,9.03
2019-01-18T06:43:27.653Z,10.13
2019-01-18T06:45:57.647Z,8.40
2019-01-18T06:48:28.865Z,9.13
2019-01-18T06:50:58.809Z,9.77
2019-01-18T06:53:28.733Z,9.37
2019-01-18T06:55:58.761Z,9.27
2019-01-18T06:58:29.713Z,8.97
2019-01-18T07:00:59.750Z,9.53
2019-01-18T07:03:29.813Z,9.23
2019-01-18T07:06:21.182Z,9.10
2019-01-18T07:08:57.940Z,9.33
2019-01-18T07:11:27.930Z,10.40
2019-01-18T07:13:57.903Z,9.53
2019-01-18T07:16:27.893Z,10.47
2019-01-18T07:18:57.810Z,10.07
2019-01-18T07:21:27.809Z,8.90
2019-01-18T07:23:57.854Z,10.10
2019-01-18T07:26:27.789Z,10.00
2019-01-18T07:28:58.061Z,10.17
2019-01-18T07:31:28.190Z,10.30
2019-01-18T07:33:58.182Z,10.27
2019-01-18T07:36:28.344Z,11.30
2019-01-18T07:39:00.614Z,9.83
2019-01-18T07:41:29.965Z,10.60
2019-01-18T07:44:00.313Z,12.40
2019-01-18T07:46:30.277Z,10.97
2019-01-18T07:49:00.460Z,10.70
2019-01-18T07:51:30.478Z,12.90
2019-01-18T07:54:00.449Z,13.60
2019-01-18T07:56:30.406Z,14.60
2019-01-18T07:59:00.513Z,13.27
2019-01-18T08:01:30.538Z,15.37
2019-01-18T08:04:00.645Z,16.07
2019-01-18T08:06:30.839Z,14.70
2019-01-18T08:09:00.864Z,16.30
2019-01-18T08:11:30.948Z,17.30
2019-01-18T08:14:00.883Z,15.93
2019-01-18T08:16:30.830Z,15.80
2019-01-18T08:19:00.773Z,15.93
2019-01-18T08:21:30.689Z,16.27
2019-01-18T08:24:00.721Z,16.43
2019-01-18T08:26:31.066Z,16.60
2019-01-18T08:29:01.005Z,16.40
2019-01-18T08:31:31.034Z,15.20
2019-01-18T08:34:01.019Z,12.27
2019-01-18T08:36:34.309Z,15.73
2019-01-18T08:39:07.725Z,20.93
2019-01-18T08:41:37.753Z,14.77
2019-01-18T08:44:08.793Z,14.47
2019-01-18T08:46:40.217Z,12.90
2019-01-18T08:49:10.885Z,13.73
2019-01-18T08:51:41.018Z,13.23
2019-01-18T08:54:11.522Z,14.20
2019-01-18T08:56:41.479Z,21.83
2019-01-18T08:59:11.577Z,21.37
2019-01-18T09:01:41.532Z,20.00
2019-01-18T09:04:11.613Z,16.80
2019-01-18T09:06:41.672Z,14.47
2019-01-18T09:09:12.109Z,12.50
2019-01-18T09:11:42.113Z,12.87
2019-01-18T09:14:12.072Z,10.70
2019-01-18T09:16:51.457Z,12.40
2019-01-18T09:19:21.557Z,11.23
2019-01-18T09:21:51.542Z,15.10
2019-01-18T09:24:21.481Z,13.40
2019-01-18T09:26:51.399Z,14.90
2019-01-18T09:29:21.317Z,15.00
2019-01-18T09:31:51.294Z,14.60
2019-01-18T09:34:21.394Z,14.10
2019-01-18T09:36:52.841Z,15.00
2019-01-18T09:39:22.793Z,16.07
2019-01-18T09:41:52.773Z,17.23
2019-01-18T09:44:22.910Z,16.90
2019-01-18T09:46:52.922Z,16.37
2019-01-18T09:49:23.023Z,17.50
2019-01-18T09:51:53.102Z,15.70
2019-01-18T09:54:23.018Z,13.83
2019-01-18T09:56:52.994Z,15.70
2019-01-18T09:59:23.042Z,15.70
2019-01-18T10:01:52.978Z,16.10
2019-01-18T10:04:22.970Z,16.00
2019-01-18T10:06:52.993Z,15.67
2019-01-18T10:09:23.231Z,14.83
2019-01-18T10:11:53.182Z,15.60
2019-01-18T10:14:23.134Z,18.67
2019-01-18T10:16:53.539Z,15.87
2019-01-18T10:19:24.202Z,17.60
2019-01-18T10:21:55.113Z,16.77
2019-01-18T10:24:25.073Z,15.77
2019-01-18T10:26:55.097Z,16.00
2019-01-18T10:29:28.248Z,15.53
2019-01-18T10:31:56.997Z,18.53
2019-01-18T10:34:27.094Z,17.23
2019-01-18T10:36:57.359Z,15.63
2019-01-18T10:39:27.361Z,15.70
2019-01-18T10:41:57.409Z,16.33
2019-01-18T10:44:27.981Z,14.77
2019-01-18T10:46:57.953Z,16.30
2019-01-18T10:49:27.973Z,15.37
2019-01-18T10:51:57.946Z,17.80
2019-01-18T10:54:28.138Z,17.50
2019-01-18T10:56:58.114Z,16.97
2019-01-18T10:59:28.133Z,15.90
2019-01-18T11:02:03.342Z,16.30
2019-01-18T11:04:29.705Z,15.43
2019-01-18T11:06:59.860Z,15.63
2019-01-18T11:09:29.878Z,14.70
2019-01-18T11:11:59.865Z,14.73
2019-01-18T11:14:29.993Z,15.80
2019-01-18T11:17:00.009Z,15.50
2019-01-18T11:19:29.948Z,15.57
2019-01-18T11:22:00.174Z,14.97
2019-01-18T11:24:30.088Z,14.03
2019-01-18T11:27:00.206Z,15.77
2019-01-18T11:29:30.159Z,14.10
2019-01-18T11:32:00.302Z,15.23
2019-01-18T11:34:30.248Z,14.20
2019-01-18T11:37:00.701Z,13.30
2019-01-18T11:39:30.628Z,14.43
2019-01-18T11:42:00.685Z,15.67
2019-01-18T11:44:31.205Z,15.80
2019-01-18T11:47:01.253Z,15.13
2019-01-18T11:49:31.313Z,14.77
2019-01-18T11:52:01.361Z,14.77
2019-01-18T11:54:31.354Z,15.10
2019-01-18T11:57:01.347Z,13.67
2019-01-18T11:59:31.928Z,14.53
2019-01-18T12:02:02.097Z,15.40
2019-01-18T12:04:32.254Z,15.10
2019-01-18T12:07:02.172Z,15.73
2019-01-18T12:09:32.142Z,15.67
2019-01-18T12:12:02.107Z,15.50
2019-01-18T12:14:32.134Z,15.80
2019-01-18T12:17:02.010Z,13.73
2019-01-18T12:19:33.461Z,15.90
2019-01-18T12:22:03.545Z,18.50
2019-01-18T12:24:33.510Z,23.33
2019-01-18T12:27:03.497Z,16.83
2019-01-18T12:29:33.663Z,14.87
2019-01-18T12:32:03.918Z,13.40
2019-01-18T12:34:33.901Z,14.00
2019-01-18T12:37:03.906Z,12.97
2019-01-18T12:39:35.637Z,11.83
2019-01-18T12:42:05.780Z,11.60
2019-01-18T12:44:35.732Z,11.97
2019-01-18T12:47:06.889Z,15.70
2019-01-18T12:49:36.866Z,13.70
2019-01-18T12:52:06.889Z,12.73
2019-01-18T12:54:36.850Z,13.17
2019-01-18T12:57:06.905Z,12.00
2019-01-18T12:59:37.443Z,12.40
2019-01-18T13:02:07.762Z,10.70
2019-01-18T13:04:40.665Z,9.60
2019-01-18T13:07:10.694Z,10.57
2019-01-18T13:09:41.518Z,9.07
2019-01-18T13:12:11.578Z,9.40
2019-01-18T13:14:41.565Z,9.30
2019-01-18T13:17:11.710Z,8.97
2019-01-18T13:19:42.704Z,9.60
2019-01-18T13:22:12.630Z,9.43
2019-01-18T13:24:43.135Z,9.10
2019-01-18T13:27:13.102Z,9.73
2019-01-18T13:29:43.419Z,9.60
2019-01-18T13:32:13.826Z,10.90
2019-01-18T13:34:43.782Z,8.60
2019-01-18T13:37:13.782Z,10.43
2019-01-18T13:39:43.745Z,10.80
2019-01-18T13:42:13.915Z,9.73
2019-01-18T13:44:43.978Z,9.50
2019-01-18T13:47:18.281Z,9.50
2019-01-18T13:49:45.703Z,9.37
2019-01-18T13:52:15.655Z,10.10
2019-01-18T13:54:45.672Z,9.60
2019-01-18T13:57:15.741Z,9.97
2019-01-18T13:59:45.749Z,9.30
2019-01-18T14:02:15.735Z,9.47
2019-01-18T14:04:47.141Z,9.33
2019-01-18T14:07:17.293Z,9.97
2019-01-18T14:09:47.265Z,10.37
2019-01-18T14:12:17.430Z,9.90
2019-01-18T14:14:48.481Z,10.27
2019-01-18T14:17:18.543Z,9.87
2019-01-18T14:19:48.522Z,10.83
2019-01-18T14:22:20.021Z,9.27
2019-01-18T14:24:50.724Z,9.53
2019-01-18T14:27:20.685Z,9.57
2019-01-18T14:29:51.114Z,9.10
2019-01-18T14:32:21.605Z,11.07
2019-01-18T14:34:51.692Z,11.10
2019-01-18T14:37:22.118Z,9.27
2019-01-18T14:39:52.830Z,10.00
2019-01-18T14:42:22.957Z,11.43
2019-01-18T14:44:53.358Z,11.53
2019-01-18T14:47:24.625Z,10.20
2019-01-18T14:49:54.993Z,9.73
2019-01-18T14:52:24.997Z,8.53
2019-01-18T14:54:55.460Z,7.27
2019-01-18T14:57:25.934Z,8.03
2019-01-18T14:59:56.398Z,6.83
2019-01-18T15:02:26.716Z,7.00
2019-01-18T15:04:56.919Z,6.80
2019-01-18T15:07:27.035Z,6.40
2019-01-18T15:09:57.660Z,6.07
2019-01-18T15:12:27.801Z,8.87
2019-01-18T15:14:57.753Z,6.93
2019-01-18T15:17:27.778Z,6.53
2019-01-18T15:19:57.807Z,6.40
2019-01-18T15:22:28.050Z,6.33
2019-01-18T15:24:58.142Z,8.30
2019-01-18T15:27:28.121Z,6.37
2019-01-18T15:29:58.380Z,6.63
2019-01-18T15:32:28.345Z,6.70
2019-01-18T15:34:58.462Z,7.10
2019-01-18T15:37:28.430Z,6.10
2019-01-18T15:39:58.462Z,6.90
2019-01-18T15:42:28.613Z,6.60
2019-01-18T15:44:58.787Z,5.90
2019-01-18T15:47:28.854Z,7.67
2019-01-18T15:49:58.915Z,6.70
2019-01-18T15:52:28.873Z,7.20
2019-01-18T15:54:58.932Z,7.50
2019-01-18T15:57:28.938Z,5.40
2019-01-18T15:59:58.921Z,5.33
2019-01-18T16:02:28.975Z,6.93
2019-01-18T16:04:58.974Z,5.53
2019-01-18T16:07:29.090Z,6.50
2019-01-18T16:09:59.608Z,5.70
2019-01-18T16:12:29.674Z,5.77
2019-01-18T16:14:59.685Z,5.70
2019-01-18T16:17:31.696Z,5.20
2019-01-18T16:20:02.115Z,5.00
2019-01-18T16:22:32.517Z,5.67
2019-01-18T16:25:02.418Z,7.30
2019-01-18T16:27:32.582Z,5.23
2019-01-18T16:30:02.540Z,4.67
2019-01-18T16:32:33.643Z,5.13
2019-01-18T16:35:03.915Z,5.13
2019-01-18T16:37:33.968Z,6.53
2019-01-18T16:40:04.587Z,6.67
2019-01-18T16:42:34.720Z,6.30
2019-01-18T16:45:05.569Z,6.20
2019-01-18T16:47:35.566Z,4.93
2019-01-18T16:50:07.100Z,5.80
2019-01-18T16:52:37.102Z,4.70
2019-01-18T16:55:08.301Z,5.17
2019-01-18T16:57:38.385Z,5.60
2019-01-18T17:00:17.558Z,4.63
2019-01-18T17:02:47.722Z,5.40
2019-01-18T17:05:20.613Z,5.80
2019-01-18T17:07:50.663Z,5.70
2019-01-18T17:10:20.929Z,5.00
2019-01-18T17:12:51.062Z,6.00
2019-01-18T17:15:21.073Z,5.60
2019-01-18T17:17:51.140Z,4.93
2019-01-18T17:20:26.591Z,5.10
2019-01-18T17:22:59.417Z,4.80
2019-01-18T17:25:29.662Z,5.50
2019-01-18T17:27:59.661Z,5.93
2019-01-18T17:30:30.134Z,5.23
2019-01-18T17:33:00.380Z,5.63
2019-01-18T17:35:35.838Z,5.23
2019-01-18T17:38:46.671Z,5.67
2019-01-18T17:41:29.307Z,6.10
2019-01-18T17:44:36.081Z,5.60
2019-01-18T17:47:32.230Z,5.27
2019-01-18T17:50:39.795Z,6.03
2019-01-18T17:53:38.453Z,6.50
2019-01-18T17:56:32.323Z,6.47
2019-01-18T17:59:24.949Z,6.20
2019-01-18T18:02:51.618Z,6.53
2019-01-18T18:05:54.230Z,6.33
2019-01-18T18:08:38.503Z,6.50
2019-01-18T18:11:48.201Z,6.60
2019-01-18T18:14:43.951Z,6.40
2019-01-18T18:17:53.411Z,7.10
2019-01-18T18:21:00.213Z,5.87
2019-01-18T18:24:26.051Z,6.50
2019-01-18T18:27:31.146Z,6.00
2019-01-18T18:30:18.804Z,5.30
2019-01-18T18:33:39.231Z,4.77
2019-01-18T18:36:39.162Z,4.93
2019-01-18T18:39:57.780Z,4.60
2019-01-18T18:43:12.299Z,5.50
2019-01-18T18:46:23.940Z,5.70
2019-01-18T18:49:40.587Z,7.97
2019-01-18T18:52:48.680Z,7.10
2019-01-18T18:55:47.641Z,6.90
2019-01-18T18:59:10.894Z,7.87
2019-01-18T19:02:24.665Z,5.73
2019-01-18T19:05:34.503Z,4.33
2019-01-18T19:08:41.879Z,5.00
2019-01-18T19:12:02.864Z,6.40
2019-01-18T19:14:57.193Z,5.70
2019-01-18T19:17:47.799Z,5.70
2019-01-18T19:21:06.276Z,5.67
2019-01-18T19:24:13.846Z,5.50
2019-01-18T19:27:22.703Z,4.80
2019-01-18T19:30:22.113Z,5.60
2019-01-18T19:33:27.912Z,4.70
2019-01-18T19:36:12.598Z,4.93
2019-01-18T19:39:24.278Z,4.40
2019-01-18T19:42:56.397Z,4.83
2019-01-18T19:46:19.428Z,5.13
2019-01-18T19:49:36.273Z,6.07
2019-01-18T19:52:47.629Z,5.17
2019-01-18T19:55:52.537Z,5.63
2019-01-18T19:59:11.363Z,6.20
2019-01-18T20:02:13.551Z,6.27
2019-01-18T20:05:21.135Z,5.53
2019-01-18T20:08:31.230Z,5.87
2019-01-18T20:11:31.275Z,5.63
2019-01-18T20:14:37.838Z,5.70
2019-01-18T20:17:45.068Z,5.70
2019-01-18T20:20:52.311Z,6.80
2019-01-18T20:23:49.313Z,5.40
2019-01-18T20:27:00.082Z,5.60
2019-01-18T20:30:15.000Z,6.77
2019-01-18T20:33:22.451Z,5.90
2019-01-18T20:36:31.536Z,5.10
2019-01-18T20:39:41.060Z,7.13
2019-01-18T20:42:55.383Z,6.87
2019-01-18T20:46:04.639Z,6.57
2019-01-18T20:49:04.988Z,5.70
2019-01-18T20:52:14.194Z,7.10
2019-01-18T20:55:18.765Z,6.70
2019-01-18T20:58:43.687Z,7.07
2019-01-18T21:01:49.932Z,6.33
2019-01-18T21:04:52.629Z,7.57
2019-01-18T21:07:50.516Z,6.00
2019-01-18T21:10:38.311Z,5.90
2019-01-18T21:13:23.798Z,6.20
2019-01-18T21:16:40.864Z,6.80
2019-01-18T21:19:59.494Z,8.43
2019-01-18T21:22:45.464Z,6.03
2019-01-18T21:25:47.148Z,6.30
2019-01-18T21:28:59.980Z,7.07
2019-01-18T21:31:47.894Z,7.37
2019-01-18T21:35:00.658Z,6.50
2019-01-18T21:38:30.135Z,7.23
2019-01-18T21:41:48.372Z,6.77
2019-01-18T21:44:59.706Z,7.60
2019-01-18T21:48:18.149Z,6.73
2019-01-18T21:51:29.800Z,7.50
2019-01-18T21:54:47.677Z,7.50
2019-01-18T21:58:06.041Z,6.93
2019-01-18T22:01:08.998Z,6.20
2019-01-18T22:04:21.582Z,6.10
2019-01-18T22:07:24.527Z,6.83
2019-01-18T22:10:26.986Z,6.83
2019-01-18T22:13:33.321Z,7.50
2019-01-18T22:16:47.319Z,7.00
2019-01-18T22:19:47.402Z,7.20
2019-01-18T22:23:01.865Z,6.43
2019-01-18T22:26:25.421Z,6.03
2019-01-18T22:29:10.262Z,6.97
2019-01-18T22:32:13.909Z,7.23
2019-01-18T22:34:56.830Z,6.97
2019-01-18T22:38:10.534Z,6.70
2019-01-18T22:41:22.449Z,7.40
2019-01-18T22:44:09.054Z,6.73
2019-01-18T22:47:18.396Z,7.07
2019-01-18T22:50:15.995Z,6.63
2019-01-18T22:53:22.680Z,6.53
2019-01-18T22:56:30.558Z,7.00
2019-01-18T22:59:27.653Z,6.60
2019-01-18T23:02:36.885Z,6.27
2019-01-18T23:05:52.422Z,6.80
2019-01-18T23:09:04.658Z,6.83
2019-01-18T23:12:15.641Z,7.07
2019-01-18T23:15:26.437Z,6.20
2019-01-18T23:18:29.202Z,6.73
2019-01-18T23:21:15.032Z,6.67
2019-01-18T23:24:19.486Z,6.03
2019-01-18T23:27:36.357Z,5.80
2019-01-18T23:30:25.449Z,5.93
2019-01-18T23:33:27.910Z,5.23
2019-01-18T23:36:18.645Z,5.27
2019-01-18T23:39:41.942Z,5.67
2019-01-18T23:42:37.609Z,6.10
2019-01-18T23:45:48.798Z,6.00
2019-01-18T23:49:01.991Z,5.73
2019-01-18T23:52:10.558Z,6.10
2019-01-18T23:55:00.531Z,5.83
2019-01-18T23:57:53.447Z,6.13
